Aviation Digital Data Service (ADDS)

Output produced by METARs form (2246 UTC 23 March 2019)
found at http://www.aviationweather.gov/metar/data/
 
Forecast for: MUHA (HAVANA/JOSE MAR , CU)
Text: MUHA 231700Z 2318/2418 03010KT 9000 SCT030
Forecast period: 1800 UTC 23 March 2019 to 0200 UTC 24 March 2019
Forecast type: FROM: standard forecast or significant change
Winds: from the NNE (30 degrees) at 12 MPH (10 knots; 5.1 m/s)
Visibility: 6 miles (9 km)
Ceiling: at least 12,000 feet AGL
Clouds: scattered clouds at 3000 feet AGL
Weather: no significant weather forecast for this period
Text: BECMG 2402/2404 06008KT
Forecast period: 0200 to 0800 UTC 24 March 2019
Forecast type: BECOMING: Conditions expected to become as follows by 0400 UTC 24 March 2019
Winds: from the ENE (60 degrees) at 9 MPH (8 knots; 4.1 m/s)
Visibility: 6 miles (9 km)
Ceiling: at least 12,000 feet AGL
Clouds: scattered clouds at 3000 feet AGL
Weather: no significant weather forecast for this period
Text: BECMG 2408/2410 09006KT FEW030
Forecast period: 0800 to 1800 UTC 24 March 2019
Forecast type: BECOMING: Conditions expected to become as follows by 1000 UTC 24 March 2019
Winds: from the E (90 degrees) at 7 MPH (6 knots; 3.1 m/s)
Visibility: 6 miles (9 km)
Ceiling: at least 12,000 feet AGL
Clouds: few clouds at 3000 feet AGL
Weather: no significant weather forecast for this period